Time;durP1;ratioP1;P1;durP2;ratioP2;P2;SDS_P1;SDS_P2;PMS_P1;PMS_P2;Temp;Humidity;BMP_temperature;BMP_pressure;BME280_temperature;BME280_humidity;BME280_pressure;Samples;Min_cycle;Max_cycle;Signal;HPM_P1;HPM_P2
2022/03/21 00:00:15;;;;;;;;;56.75;47.00;;;;;13.02;44.14;102108.72;2095407;28;47860;-60
2022/03/21 00:01:19;;;;;;;;;56.75;46.00;;;;;13.00;44.02;102111.41;2095219;28;47385;-60
2022/03/21 00:02:19;;;;;;;;;62.00;48.20;;;;;13.01;44.04;102113.19;2095284;28;47537;-61
2022/03/21 00:03:22;;;;;;;;;60.25;47.00;;;;;13.00;44.05;102110.53;2104369;28;48011;-61
2022/03/21 00:04:23;;;;;;;;;57.20;46.40;;;;;12.99;43.86;102111.44;2104413;28;47465;-61
2022/03/21 00:05:25;;;;;;;;;61.20;49.20;;;;;12.97;44.17;102108.78;2104329;28;47555;-61
2022/03/21 00:06:25;;;;;;;;;58.00;47.80;;;;;12.97;44.21;102108.78;2095678;28;48451;-59
2022/03/21 00:07:26;;;;;;;;;54.75;45.00;;;;;12.93;44.23;102113.25;2098868;28;47572;-60
2022/03/21 00:08:28;;;;;;;;;58.00;46.75;;;;;12.94;44.33;102116.78;2104135;28;46734;-60
2022/03/21 00:09:28;;;;;;;;;59.20;47.60;;;;;12.93;44.38;102115.03;2077905;28;47929;-58
2022/03/21 00:10:32;;;;;;;;;62.25;48.75;;;;;12.91;44.43;102111.50;2081702;28;47887;-58
2022/03/21 00:11:33;;;;;;;;;54.60;45.00;;;;;12.90;44.27;102115.06;2112591;27;47624;-60
2022/03/21 00:12:35;;;;;;;;;58.75;47.25;;;;;12.90;44.44;102115.06;2104586;27;47956;-60
2022/03/21 00:13:36;;;;;;;;;58.00;46.00;;;;;12.90;44.34;102115.06;2101219;28;48160;-58
2022/03/21 00:14:36;;;;;;;;;55.00;44.50;;;;;12.90;44.42;102115.94;2095957;28;47386;-60
2022/03/21 00:15:37;;;;;;;;;55.50;45.50;;;;;12.90;44.58;102115.94;2102410;28;47312;-57
2022/03/21 00:16:38;;;;;;;;;55.00;45.75;;;;;12.90;44.48;102121.28;2085585;28;47961;-57
2022/03/21 00:17:40;;;;;;;;;55.40;46.00;;;;;12.90;44.52;102115.06;2086112;28;47514;-60
2022/03/21 00:18:41;;;;;;;;;57.80;46.80;;;;;12.90;44.60;102115.06;2103724;28;48115;-61
2022/03/21 00:19:41;;;;;;;;;59.25;47.50;;;;;12.89;44.54;102119.50;2101300;28;47641;-61
2022/03/21 00:20:46;;;;;;;;;54.50;44.25;;;;;12.88;44.28;102114.19;2103788;28;47921;-61
2022/03/21 00:21:47;;;;;;;;;56.80;45.80;;;;;12.87;44.38;102121.31;2104054;28;47601;-61
2022/03/21 00:22:47;;;;;;;;;59.75;48.00;;;;;12.87;44.42;102115.97;2104197;28;47917;-61
2022/03/21 00:23:48;;;;;;;;;54.00;44.75;;;;;12.87;44.47;102112.44;2104006;28;47792;-61
2022/03/21 00:24:50;;;;;;;;;57.75;46.75;;;;;12.87;44.44;102115.97;2104224;28;47930;-60
2022/03/21 00:25:51;;;;;;;;;56.60;45.20;;;;;12.88;44.40;102124.84;2104117;28;47996;-59
2022/03/21 00:26:51;;;;;;;;;57.40;46.60;;;;;12.88;44.66;102124.84;2103787;28;47763;-59
2022/03/21 00:27:54;;;;;;;;;59.25;45.50;;;;;12.87;44.56;102117.75;2104376;28;47817;-61
2022/03/21 00:28:55;;;;;;;;;56.00;46.60;;;;;12.87;44.49;102121.31;2104218;28;48112;-57
2022/03/21 00:29:55;;;;;;;;;60.00;46.50;;;;;12.87;44.56;102120.41;2104327;28;47500;-60
2022/03/21 00:30:56;;;;;;;;;58.00;46.50;;;;;12.85;44.60;102112.44;2103692;28;47203;-61
2022/03/21 00:31:57;;;;;;;;;56.50;46.50;;;;;12.84;44.60;102116.00;2103967;28;46712;-59
2022/03/21 00:32:57;;;;;;;;;56.40;47.00;;;;;12.84;44.65;102115.13;2104054;28;47625;-60
2022/03/21 00:33:57;;;;;;;;;62.25;48.25;;;;;12.83;44.69;102116.91;2104035;28;47396;-62
2022/03/21 00:34:58;;;;;;;;;59.25;48.25;;;;;12.83;44.77;102114.25;2104107;28;47505;-61
2022/03/21 00:35:59;;;;;;;;;57.00;45.75;;;;;12.83;44.86;102119.56;2103837;28;47775;-60
2022/03/21 00:36:59;;;;;;;;;59.50;48.75;;;;;12.82;44.74;102116.91;2103684;28;46903;-60
2022/03/21 00:38:00;;;;;;;;;59.00;48.00;;;;;12.79;44.84;102117.81;2103720;28;47436;-61
2022/03/21 00:39:00;;;;;;;;;59.00;48.00;;;;;12.79;44.81;102119.59;2104450;28;47119;-61
2022/03/21 00:40:01;;;;;;;;;59.25;47.50;;;;;12.79;44.67;102119.59;2104097;28;47753;-60
2022/03/21 00:41:01;;;;;;;;;58.50;48.25;;;;;12.77;44.93;102119.59;2104255;28;45873;-61
2022/03/21 00:42:04;;;;;;;;;59.50;47.75;;;;;12.77;44.85;102116.94;2094973;28;47499;-60
2022/03/21 00:43:05;;;;;;;;;58.80;47.40;;;;;12.76;44.88;102115.19;2086635;28;47831;-60
2022/03/21 00:44:05;;;;;;;;;59.25;48.50;;;;;12.77;44.93;102113.41;2095086;28;47439;-58
2022/03/21 00:45:11;;;;;;;;;55.00;46.25;;;;;12.76;45.10;102119.63;2104297;28;47632;-61
2022/03/21 00:46:11;;;;;;;;;61.20;48.60;;;;;12.73;45.04;102112.56;2103710;28;47836;-60
2022/03/21 00:47:14;;;;;;;;;59.00;47.25;;;;;12.72;45.00;102117.91;2103841;28;47895;-61
2022/03/21 00:48:16;;;;;;;;;57.60;47.60;;;;;12.70;45.07;102115.22;2103932;28;47074;-60
2022/03/21 00:49:17;;;;;;;;;59.80;48.00;;;;;12.71;44.95;102116.13;2104088;28;47635;-61
2022/03/21 00:50:18;;;;;;;;;60.50;48.75;;;;;12.71;45.26;102113.47;2104320;28;47670;-60
2022/03/21 00:51:19;;;;;;;;;58.20;47.20;;;;;12.70;45.09;102112.56;2103858;28;47498;-61
2022/03/21 00:52:20;;;;;;;;;58.00;46.50;;;;;12.70;45.27;102111.66;2094846;28;48120;-60
2022/03/21 00:53:21;;;;;;;;;59.20;47.20;;;;;12.70;45.14;102114.31;2095985;28;48147;-59
2022/03/21 00:54:21;;;;;;;;;55.20;45.60;;;;;12.68;45.18;102112.56;2103820;27;47850;-61
2022/03/21 00:55:26;;;;;;;;;60.75;48.25;;;;;12.70;45.25;102109.00;2105241;28;47820;-61
2022/03/21 00:56:26;;;;;;;;;57.80;47.60;;;;;12.68;45.35;102109.91;2105338;28;47715;-61
2022/03/21 00:57:27;;;;;;;;;48.75;40.75;;;;;12.68;45.24;102109.03;2105160;28;48010;-59
2022/03/21 00:58:27;;;;;;;;;59.75;49.00;;;;;12.67;45.43;102112.59;2105199;28;47846;-57
2022/03/21 00:59:28;;;;;;;;;58.25;47.50;;;;;12.67;45.35;102112.59;2104250;27;47371;-59
2022/03/21 01:00:30;;;;;;;;;58.00;47.50;;;;;12.67;45.34;102112.59;2104555;28;47902;-56
2022/03/21 01:01:30;;;;;;;;;60.40;49.20;;;;;12.66;45.45;102110.81;2094981;28;48093;-61
2022/03/21 01:02:30;;;;;;;;;59.25;47.50;;;;;12.66;45.58;102110.81;2096095;28;48051;-61
2022/03/21 01:03:31;;;;;;;;;65.00;49.25;;;;;12.63;45.48;102108.19;2101450;28;47642;-61
2022/03/21 01:04:31;;;;;;;;;62.50;49.25;;;;;12.63;45.32;102108.19;2105566;28;47831;-61
2022/03/21 01:05:32;;;;;;;;;58.00;48.50;;;;;12.63;45.36;102111.72;2105183;28;47442;-61
2022/03/21 01:06:32;;;;;;;;;59.80;48.20;;;;;12.62;45.60;102107.31;2096442;28;47958;-61
2022/03/21 01:07:34;;;;;;;;;55.00;43.00;;;;;12.61;45.61;102108.19;2096223;28;47550;-60
2022/03/21 01:08:34;;;;;;;;;62.60;50.00;;;;;12.60;45.64;102105.56;2105230;28;48041;-61
2022/03/21 01:09:35;;;;;;;;;58.25;46.25;;;;;12.59;45.73;102110.00;2105214;28;48080;-60
2022/03/21 01:10:35;;;;;;;;;59.25;47.00;;;;;12.59;45.62;102111.78;2105117;28;47591;-61
2022/03/21 01:11:36;;;;;;;;;60.25;47.00;;;;;12.58;45.76;102112.69;2104965;28;47514;-59
2022/03/21 01:12:36;;;;;;;;;58.00;47.00;;;;;12.56;45.63;102107.34;2086967;28;47508;-59
2022/03/21 01:13:41;;;;;;;;;52.25;44.00;;;;;12.56;45.71;102110.00;2086151;28;47896;-60
2022/03/21 01:14:42;;;;;;;;;56.40;46.40;;;;;12.55;45.62;102110.00;2105082;28;47702;-60
2022/03/21 01:15:42;;;;;;;;;61.50;49.50;;;;;12.53;45.88;102110.03;2087081;28;47251;-60
2022/03/21 01:16:42;;;;;;;;;58.50;48.00;;;;;12.52;45.98;102110.03;2087246;28;47614;-59
2022/03/21 01:17:44;;;;;;;;;62.00;49.50;;;;;12.51;45.80;102114.50;2101453;28;47684;-61
2022/03/21 01:18:45;;;;;;;;;60.00;48.80;;;;;12.51;45.87;102113.59;2105112;28;48130;-60
2022/03/21 01:19:45;;;;;;;;;59.80;48.00;;;;;12.48;46.11;102109.19;2105233;28;47636;-60
2022/03/21 01:20:46;;;;;;;;;60.25;49.50;;;;;12.47;46.09;102114.53;2105135;28;47329;-58
2022/03/21 01:21:46;;;;;;;;;64.75;50.75;;;;;12.47;46.16;102114.53;2087086;28;47700;-58
2022/03/21 01:22:48;;;;;;;;;60.25;49.25;;;;;12.45;45.89;102113.63;2087678;28;46437;-60
2022/03/21 01:23:48;;;;;;;;;61.80;49.20;;;;;12.45;46.14;102116.28;2105206;28;47569;-61
2022/03/21 01:24:49;;;;;;;;;60.00;48.00;;;;;12.45;46.17;102113.63;2105576;28;47715;-59
2022/03/21 01:25:49;;;;;;;;;61.75;47.75;;;;;12.44;46.04;102114.53;2103885;28;47528;-61
2022/03/21 01:26:50;;;;;;;;;60.50;49.50;;;;;12.45;46.21;102111.88;2096849;28;47520;-61
2022/03/21 01:27:50;;;;;;;;;59.75;48.50;;;;;12.44;46.38;102111.88;2101416;28;48250;-59
2022/03/21 01:28:51;;;;;;;;;66.00;52.50;;;;;12.44;46.04;102111.88;2105190;28;48079;-60
2022/03/21 01:29:51;;;;;;;;;62.25;49.75;;;;;12.43;46.23;102108.31;2105095;27;47872;-60
2022/03/21 01:30:52;;;;;;;;;58.75;49.00;;;;;12.43;46.10;102107.44;2105091;28;47340;-59
2022/03/21 01:31:52;;;;;;;;;62.50;50.50;;;;;12.42;46.28;102114.53;2105259;28;47536;-58
2022/03/21 01:32:53;;;;;;;;;65.50;51.75;;;;;12.43;46.32;102115.44;2105512;28;47566;-61
2022/03/21 01:33:56;;;;;;;;;60.25;49.25;;;;;12.43;46.14;102115.44;2104891;28;47699;-60
2022/03/21 01:34:56;;;;;;;;;62.40;49.60;;;;;12.44;46.35;102118.06;2105174;28;47686;-60
2022/03/21 01:35:57;;;;;;;;;58.25;47.00;;;;;12.46;46.22;102115.44;2105315;28;47452;-61
2022/03/21 01:36:57;;;;;;;;;60.25;48.50;;;;;12.45;46.42;102108.31;2104913;28;48051;-61
2022/03/21 01:37:58;;;;;;;;;63.00;51.00;;;;;12.46;46.37;102115.44;2105107;28;47580;-60
2022/03/21 01:38:58;;;;;;;;;62.75;49.25;;;;;12.46;46.37;102113.66;2095494;28;47246;-60
2022/03/21 01:39:59;;;;;;;;;59.75;49.50;;;;;12.47;46.28;102118.06;2095504;28;47710;-58
2022/03/21 01:41:00;;;;;;;;;63.00;49.50;;;;;12.48;46.43;102110.97;2105018;28;47934;-60
2022/03/21 01:42:00;;;;;;;;;61.50;49.25;;;;;12.48;46.20;102118.97;2105123;28;47273;-60
2022/03/21 01:43:00;;;;;;;;;59.75;47.50;;;;;12.48;46.31;102117.19;2105425;28;47414;-60
2022/03/21 01:44:04;;;;;;;;;63.00;49.50;;;;;12.49;46.26;102112.75;2105030;28;47473;-59
2022/03/21 01:45:05;;;;;;;;;63.40;51.00;;;;;12.49;46.29;102110.06;2105162;28;47535;-61
2022/03/21 01:46:06;;;;;;;;;62.80;50.40;;;;;12.49;46.21;102110.97;2105171;28;47955;-60
2022/03/21 01:47:06;;;;;;;;;60.25;49.75;;;;;12.50;46.42;102106.50;2086724;28;47528;-58
2022/03/21 01:48:07;;;;;;;;;62.50;47.25;;;;;12.51;46.23;102116.28;2086159;28;47587;-61
2022/03/21 01:49:09;;;;;;;;;63.25;50.00;;;;;12.51;46.51;102108.28;2104926;28;48073;-60
2022/03/21 01:50:11;;;;;;;;;59.80;48.20;;;;;12.50;46.24;102110.06;2102896;28;47248;-60
2022/03/21 01:51:12;;;;;;;;;59.80;48.40;;;;;12.51;46.55;102105.63;2098666;28;48047;-60
2022/03/21 01:52:13;;;;;;;;;59.25;47.50;;;;;12.51;46.41;102114.50;2104952;28;46829;-60
2022/03/21 01:55:51;;;;;;;;;57.80;45.80;;;;;12.51;46.63;102111.81;2104780;28;48155;-60
2022/03/21 01:56:52;;;;;;;;;60.40;49.40;;;;;12.50;46.54;102115.38;2095089;28;47261;-60
2022/03/21 01:57:53;;;;;;;;;61.00;47.25;;;;;12.50;46.43;102107.41;2095695;28;47348;-60
2022/03/21 01:58:54;;;;;;;;;41.25;36.25;;;;;12.50;46.54;102111.84;2096266;28;47415;-60
2022/03/21 01:59:56;;;;;;;;;56.20;47.00;;;;;12.51;46.74;102111.81;2103619;28;47777;-59
2022/03/21 02:00:56;;;;;;;;;55.60;45.80;;;;;12.52;46.75;102113.59;2104881;28;48032;-60
2022/03/21 02:01:57;;;;;;;;;58.50;48.00;;;;;12.53;46.66;102114.47;2104875;28;47632;-60
2022/03/21 02:02:57;;;;;;;;;60.00;48.75;;;;;12.54;46.72;102111.78;2086025;28;47762;-60
2022/03/21 02:03:58;;;;;;;;;61.00;48.50;;;;;12.55;46.59;102115.34;2086757;28;47865;-59
2022/03/21 02:04:59;;;;;;;;;58.25;46.75;;;;;12.55;46.67;102102.91;2104863;28;47745;-59
2022/03/21 02:05:59;;;;;;;;;63.25;49.75;;;;;12.57;46.75;102118.88;2086609;28;47962;-58
2022/03/21 02:07:01;;;;;;;;;59.50;48.50;;;;;12.58;46.51;102107.34;2087061;28;48039;-59
2022/03/21 02:08:01;;;;;;;;;61.20;49.00;;;;;12.58;46.61;102105.56;2104770;28;48034;-61
2022/03/21 02:09:05;;;;;;;;;58.00;47.00;;;;;12.60;46.73;102108.22;2096041;28;47535;-60
2022/03/21 02:10:06;;;;;;;;;60.80;48.60;;;;;12.60;46.83;102103.78;2096493;28;47957;-61
2022/03/21 02:11:07;;;;;;;;;54.60;45.00;;;;;12.60;46.89;102113.53;2104942;28;47905;-60
2022/03/21 02:12:08;;;;;;;;;61.75;49.00;;;;;12.58;46.65;102118.88;2105208;28;48037;-60
2022/03/21 02:13:10;;;;;;;;;60.00;48.20;;;;;12.57;46.55;102111.75;2104795;28;47578;-59
2022/03/21 02:14:10;;;;;;;;;58.80;48.40;;;;;12.56;46.76;102112.66;2105205;28;47566;-61
2022/03/21 02:15:12;;;;;;;;;55.75;44.75;;;;;12.56;46.96;102114.44;2105108;28;47668;-58
2022/03/21 02:16:12;;;;;;;;;57.60;46.60;;;;;12.56;47.10;102114.44;2105287;28;48020;-59
2022/03/21 02:17:18;;;;;;;;;60.00;47.00;;;;;12.54;46.84;102122.44;2104659;28;47699;-60
2022/03/21 02:18:20;;;;;;;;;56.20;46.40;;;;;12.54;46.96;102124.22;2105000;28;47567;-60
2022/03/21 02:19:31;;;;;;;;;60.60;49.20;;;;;12.53;47.09;102112.69;2104466;28;47801;-60
2022/03/21 02:20:35;;;;;;;;;62.40;49.80;;;;;12.52;46.97;102108.25;2103586;27;47644;-60
2022/03/21 02:21:54;;;;;;;;;62.00;49.20;;;;;12.53;46.90;102109.16;2104703;27;47953;-60
2022/03/21 02:23:09;;;;;;;;;56.40;46.60;;;;;12.52;47.15;102105.59;2104814;28;47923;-58
2022/03/21 02:24:21;;;;;;;;;57.20;46.00;;;;;12.53;47.06;102106.47;2096431;28;47958;-60
2022/03/21 02:25:32;;;;;;;;;57.60;47.00;;;;;12.53;47.00;102103.81;2103029;28;48058;-61
2022/03/21 02:26:35;;;;;;;;;57.00;46.80;;;;;12.54;47.07;102108.25;2104891;28;47728;-59
2022/03/21 02:27:37;;;;;;;;;61.80;50.00;;;;;12.53;47.16;102104.69;2104889;28;47489;-57
2022/03/21 02:28:38;;;;;;;;;52.20;44.20;;;;;12.54;47.28;102098.47;2105176;28;47636;-59
2022/03/21 02:29:41;;;;;;;;;56.80;45.60;;;;;12.54;47.14;102102.94;2104815;28;47558;-59
2022/03/21 02:30:47;;;;;;;;;58.40;46.80;;;;;12.54;47.36;102103.81;2104950;28;48520;-59
2022/03/21 02:31:49;;;;;;;;;57.60;47.60;;;;;12.52;47.09;102094.94;2104540;28;48035;-60
2022/03/21 02:32:50;;;;;;;;;53.00;43.40;;;;;12.54;47.25;102097.59;2104989;28;47754;-61
2022/03/21 02:33:52;;;;;;;;;60.00;47.80;;;;;12.55;47.25;102100.25;2104924;28;47817;-60
2022/03/21 02:34:55;;;;;;;;;60.60;49.20;;;;;12.53;47.14;102096.72;2104967;28;48262;-61
2022/03/21 02:35:58;;;;;;;;;57.40;47.40;;;;;12.52;47.47;102094.94;2104888;28;47768;-61
2022/03/21 02:36:59;;;;;;;;;57.20;46.00;;;;;12.52;47.31;102094.06;2104897;28;47788;-59
2022/03/21 02:38:01;;;;;;;;;55.80;46.80;;;;;12.52;47.42;102094.06;2103510;28;47457;-59
2022/03/21 02:39:01;;;;;;;;;53.80;45.00;;;;;12.50;47.42;102091.41;2096256;28;47445;-59
2022/03/21 02:40:02;;;;;;;;;58.00;45.75;;;;;12.50;47.46;102094.09;2095083;28;47379;-62
2022/03/21 02:41:03;;;;;;;;;56.00;45.80;;;;;12.51;47.38;102092.31;2084731;28;47312;-60
2022/03/21 02:42:04;;;;;;;;;58.50;46.50;;;;;12.49;47.28;102087.00;2087420;28;47689;-59
2022/03/21 02:43:05;;;;;;;;;57.40;47.60;;;;;12.47;47.45;102094.13;2093087;28;47984;-60
2022/03/21 02:44:06;;;;;;;;;59.75;49.00;;;;;12.46;47.45;102102.13;2093833;28;47232;-59
2022/03/21 02:45:07;;;;;;;;;58.00;46.80;;;;;12.45;47.56;102092.34;2096592;28;48082;-60
2022/03/21 02:46:08;;;;;;;;;53.25;44.75;;;;;12.44;47.80;102090.56;2100883;28;47440;-60
2022/03/21 02:47:10;;;;;;;;;55.25;45.50;;;;;12.43;47.73;102094.13;2104739;28;47490;-58
2022/03/21 02:48:14;;;;;;;;;57.40;47.40;;;;;12.43;47.64;102084.34;2104625;28;48213;-61
2022/03/21 02:49:15;;;;;;;;;56.40;46.20;;;;;12.43;47.76;102089.69;2104956;28;47444;-60
2022/03/21 02:50:24;;;;;;;;;55.40;44.60;;;;;12.43;47.91;102084.34;2104484;28;47662;-58
2022/03/21 02:51:27;;;;;;;;;57.40;47.60;;;;;12.44;47.60;102086.13;2104591;28;47633;-60
2022/03/21 02:52:29;;;;;;;;;55.80;46.20;;;;;12.45;47.70;102085.25;2104359;28;47630;-60
2022/03/21 02:53:32;;;;;;;;;54.60;44.20;;;;;12.45;47.85;102087.91;2104644;28;47431;-61
2022/03/21 02:54:33;;;;;;;;;58.80;47.00;;;;;12.45;47.86;102092.34;2104225;28;47722;-60
2022/03/21 02:55:34;;;;;;;;;56.80;46.20;;;;;12.46;47.85;102088.81;2104589;28;47711;-60
2022/03/21 02:56:35;;;;;;;;;60.25;47.50;;;;;12.46;47.76;102087.03;2104717;28;47822;-62
2022/03/21 02:57:35;;;;;;;;;58.00;47.80;;;;;12.45;47.74;102079.03;2095608;28;47646;-60
2022/03/21 02:58:36;;;;;;;;;54.50;44.75;;;;;12.46;47.69;102083.47;2094061;28;47342;-59
2022/03/21 02:59:36;;;;;;;;;55.25;45.25;;;;;12.46;47.83;102089.69;2103989;28;48082;-60
2022/03/21 03:00:37;;;;;;;;;55.50;44.75;;;;;12.46;47.81;102094.13;2104409;28;47440;-59
2022/03/21 03:01:37;;;;;;;;;55.00;46.00;;;;;12.46;47.72;102088.81;2105153;28;47868;-61
2022/03/21 03:02:38;;;;;;;;;54.50;46.00;;;;;12.45;48.07;102084.34;2104123;28;47349;-61
2022/03/21 03:03:39;;;;;;;;;57.00;47.25;;;;;12.44;47.94;102085.25;2104912;28;47461;-59
2022/03/21 03:04:39;;;;;;;;;53.80;42.00;;;;;12.43;48.05;102088.81;2104316;28;47696;-61
2022/03/21 03:05:40;;;;;;;;;60.50;47.50;;;;;12.44;47.96;102085.25;2104463;28;47173;-61
2022/03/21 03:06:40;;;;;;;;;57.00;45.75;;;;;12.42;48.05;102085.25;2104592;28;47948;-60
2022/03/21 03:07:40;;;;;;;;;57.00;48.00;;;;;12.41;48.10;102086.16;2104774;28;45578;-61
2022/03/21 03:08:43;;;;;;;;;58.25;45.75;;;;;12.40;48.12;102088.84;2104718;28;48245;-60
2022/03/21 03:09:44;;;;;;;;;58.40;46.60;;;;;12.40;48.28;102088.84;2102419;27;48058;-62
2022/03/21 03:10:44;;;;;;;;;54.75;45.25;;;;;12.40;48.02;102092.38;2103422;27;47656;-58
2022/03/21 03:11:45;;;;;;;;;57.75;47.75;;;;;12.42;48.19;102092.38;2104042;28;47574;-60
2022/03/21 03:12:45;;;;;;;;;58.75;47.00;;;;;12.40;48.09;102087.06;2104626;28;47600;-60
2022/03/21 03:13:46;;;;;;;;;56.25;46.75;;;;;12.41;48.00;102095.91;2104339;28;47857;-62
2022/03/21 03:14:46;;;;;;;;;60.50;48.00;;;;;12.42;48.18;102095.03;2103665;27;47798;-59
2022/03/21 03:15:47;;;;;;;;;58.00;46.75;;;;;12.41;48.06;102090.59;2104419;28;47524;-61
2022/03/21 03:16:48;;;;;;;;;57.40;47.00;;;;;12.42;48.07;102087.03;2104187;28;47814;-61
2022/03/21 03:17:48;;;;;;;;;56.00;47.00;;;;;12.42;48.14;102087.91;2104332;28;47762;-61
2022/03/21 03:18:48;;;;;;;;;48.50;40.25;;;;;12.44;48.20;102093.22;2104931;28;47369;-60
2022/03/21 03:19:50;;;;;;;;;56.50;45.25;;;;;12.46;48.25;102094.13;2104306;28;47471;-60
2022/03/21 03:20:52;;;;;;;;;56.40;46.60;;;;;12.46;48.15;102092.34;2104409;28;47583;-60
2022/03/21 03:21:53;;;;;;;;;55.00;45.40;;;;;12.46;48.23;102089.69;2095986;28;47229;-60
2022/03/21 03:22:56;;;;;;;;;61.00;48.25;;;;;12.47;48.23;102091.47;2095418;28;47230;-60
2022/03/21 03:23:59;;;;;;;;;58.80;47.60;;;;;12.47;48.15;102090.56;2104406;28;47492;-60
2022/03/21 03:25:02;;;;;;;;;57.20;47.20;;;;;12.47;48.05;102096.78;2096306;28;47635;-61
2022/03/21 03:26:04;;;;;;;;;55.00;46.00;;;;;12.47;48.13;102093.22;2099721;28;47002;-61
2022/03/21 03:27:05;;;;;;;;;59.20;48.00;;;;;12.47;48.20;102095.91;2103173;28;47795;-60
2022/03/21 03:28:06;;;;;;;;;57.40;45.80;;;;;12.46;48.16;102091.47;2085806;28;48189;-60
2022/03/21 03:29:06;;;;;;;;;57.50;47.00;;;;;12.47;48.27;102093.22;2086841;28;47835;-59
2022/03/21 03:30:08;;;;;;;;;57.50;47.50;;;;;12.46;48.29;102095.00;2104435;28;47173;-56
2022/03/21 03:31:08;;;;;;;;;57.20;46.80;;;;;12.45;48.31;102087.91;2104467;28;47766;-59
2022/03/21 03:32:09;;;;;;;;;59.00;48.00;;;;;12.46;48.20;102096.78;2104203;28;47825;-62
2022/03/21 03:33:09;;;;;;;;;58.25;48.00;;;;;12.45;48.16;102090.59;2104623;28;47839;-59
2022/03/21 03:34:11;;;;;;;;;60.25;48.25;;;;;12.46;48.41;102091.47;2104110;28;47498;-60
2022/03/21 03:35:11;;;;;;;;;54.60;44.80;;;;;12.47;48.19;102094.13;2104708;28;47566;-61
2022/03/21 03:36:16;;;;;;;;;52.00;43.25;;;;;12.49;48.35;102094.97;2104035;28;47698;-60
2022/03/21 03:37:16;;;;;;;;;54.80;45.80;;;;;12.50;48.46;102095.88;2095263;28;47050;-60
2022/03/21 03:38:17;;;;;;;;;56.00;46.00;;;;;12.50;48.27;102101.19;2095258;28;47575;-60
2022/03/21 03:39:18;;;;;;;;;58.50;46.75;;;;;12.50;48.37;102095.88;2104448;28;47515;-60
2022/03/21 03:40:19;;;;;;;;;58.75;47.25;;;;;12.50;48.41;102099.41;2103960;28;47803;-60
2022/03/21 03:41:19;;;;;;;;;56.25;46.25;;;;;12.51;48.57;102098.50;2104459;28;47805;-59
2022/03/21 03:42:20;;;;;;;;;56.00;46.00;;;;;12.51;48.27;102097.63;2104205;28;47417;-60
2022/03/21 03:43:21;;;;;;;;;53.00;43.40;;;;;12.52;48.55;102104.72;2086163;28;47752;-62
2022/03/21 03:44:23;;;;;;;;;53.75;45.25;;;;;12.51;48.28;102100.28;2086384;28;47997;-60
2022/03/21 03:45:25;;;;;;;;;57.80;46.80;;;;;12.52;48.38;102105.59;2104203;28;47516;-60
2022/03/21 03:46:25;;;;;;;;;53.20;43.20;;;;;12.52;48.37;102100.28;2103910;28;47672;-59
2022/03/21 03:47:26;;;;;;;;;55.75;45.50;;;;;12.53;48.30;102101.16;2104260;28;47269;-61
2022/03/21 03:48:26;;;;;;;;;56.75;46.50;;;;;12.54;48.31;102100.25;2104739;28;47769;-61
2022/03/21 03:49:27;;;;;;;;;55.00;46.75;;;;;12.53;48.41;102094.06;2104145;28;47649;-61
2022/03/21 03:50:28;;;;;;;;;50.75;42.25;;;;;12.54;48.46;102100.25;2094488;28;47968;-60
2022/03/21 03:51:28;;;;;;;;;61.75;49.75;;;;;12.54;48.56;102105.59;2094886;28;47523;-59
2022/03/21 03:52:28;;;;;;;;;56.50;45.00;;;;;12.55;48.37;102102.03;2095163;28;47507;-59
2022/03/21 03:53:29;;;;;;;;;56.00;46.00;;;;;12.54;48.62;102106.47;2095128;28;46962;-60
2022/03/21 03:54:29;;;;;;;;;57.00;47.00;;;;;12.53;48.64;102106.47;2104727;28;47560;-60
2022/03/21 03:55:30;;;;;;;;;61.00;48.25;;;;;12.53;48.66;102107.38;2096867;28;47677;-60
2022/03/21 03:56:30;;;;;;;;;62.75;48.75;;;;;12.53;48.75;102110.03;2098542;28;48007;-60
2022/03/21 03:57:31;;;;;;;;;54.25;45.50;;;;;12.53;48.77;102112.69;2104268;28;47752;-60
2022/03/21 03:58:31;;;;;;;;;55.75;46.25;;;;;12.52;49.05;102108.25;2104420;28;48030;-58
2022/03/21 03:59:31;;;;;;;;;54.50;45.25;;;;;12.52;48.93;102100.28;2105713;27;47577;-61
2022/03/21 04:00:32;;;;;;;;;58.25;47.00;;;;;12.53;49.00;102107.38;2104150;28;47684;-61
2022/03/21 04:01:32;;;;;;;;;56.00;46.00;;;;;12.53;48.98;102107.38;2104599;28;47715;-59
2022/03/21 04:03:44;;;;;;;;;55.25;44.00;;;;;12.55;48.87;102110.00;2103844;28;47452;-61
2022/03/21 04:03:54;;;;;;;;;55.20;46.20;;;;;12.56;48.73;102104.66;2104317;28;47511;-60
2022/03/21 04:04:54;;;;;;;;;55.50;46.00;;;;;12.57;48.78;102108.22;2104427;28;47631;-59
2022/03/21 04:05:55;;;;;;;;;55.25;45.25;;;;;12.58;48.96;102107.34;2103715;28;47500;-58
2022/03/21 04:06:55;;;;;;;;;58.00;46.50;;;;;12.57;48.83;102103.78;2086124;28;48016;-59
2022/03/21 04:07:56;;;;;;;;;58.75;46.50;;;;;12.58;49.02;102105.56;2086294;28;47231;-60
2022/03/21 04:08:58;;;;;;;;;55.75;46.25;;;;;12.58;49.01;102110.00;2104166;28;47740;-61
2022/03/21 04:09:59;;;;;;;;;57.20;45.20;;;;;12.59;49.03;102114.44;2104251;28;47665;-60
2022/03/21 04:10:59;;;;;;;;;60.25;48.25;;;;;12.59;48.88;102110.00;2086113;28;47965;-57
2022/03/21 04:11:59;;;;;;;;;57.25;46.50;;;;;12.60;48.93;102109.09;2086346;28;47667;-61
2022/03/21 04:13:00;;;;;;;;;58.00;46.25;;;;;12.61;48.93;102107.31;2104240;28;48160;-60
2022/03/21 04:14:00;;;;;;;;;55.50;45.50;;;;;12.62;48.93;102111.75;2104315;28;47393;-60
2022/03/21 04:15:01;;;;;;;;;54.00;45.25;;;;;12.62;49.22;102115.28;2103919;28;47631;-60
2022/03/21 04:16:02;;;;;;;;;59.00;47.25;;;;;12.61;49.09;102113.53;2094968;28;47060;-60
2022/03/21 04:17:03;;;;;;;;;57.75;47.00;;;;;12.63;48.82;102118.84;2086789;28;47758;-60
2022/03/21 04:18:04;;;;;;;;;59.25;49.00;;;;;12.63;49.08;102117.06;2095423;28;47463;-60
2022/03/21 04:19:05;;;;;;;;;53.80;44.00;;;;;12.65;49.05;102111.72;2104467;28;47934;-60
2022/03/21 04:20:07;;;;;;;;;55.25;45.25;;;;;12.66;48.95;102119.69;2103982;28;47521;-59
2022/03/21 04:21:07;;;;;;;;;55.40;45.00;;;;;12.67;48.88;102118.78;2102181;28;48100;-59
2022/03/21 04:22:07;;;;;;;;;59.00;46.50;;;;;12.67;49.18;102116.13;2103603;28;47899;-60
2022/03/21 04:23:09;;;;;;;;;57.50;47.25;;;;;12.67;49.03;102123.22;2104382;28;47519;-60
2022/03/21 04:24:10;;;;;;;;;57.00;47.20;;;;;12.69;48.91;102118.78;2103808;28;47967;-61
2022/03/21 04:25:10;;;;;;;;;54.00;44.75;;;;;12.70;48.91;102125.88;2086109;28;47252;-60
2022/03/21 04:26:12;;;;;;;;;56.75;47.50;;;;;12.71;49.01;102124.13;2085848;28;47604;-61
2022/03/21 04:27:12;;;;;;;;;59.40;46.20;;;;;12.68;48.97;102123.22;2104755;28;47767;-59
2022/03/21 04:28:14;;;;;;;;;55.25;45.50;;;;;12.68;48.89;102123.22;2105449;28;47542;-61
2022/03/21 04:29:15;;;;;;;;;58.20;46.80;;;;;12.69;48.96;102126.75;2105345;28;47532;-61
2022/03/21 04:30:15;;;;;;;;;56.50;44.75;;;;;12.69;49.04;102126.75;2105536;28;47238;-60
2022/03/21 04:31:16;;;;;;;;;60.00;48.00;;;;;12.68;48.97;102120.56;2105467;28;47948;-60
2022/03/21 04:32:16;;;;;;;;;58.25;47.50;;;;;12.70;49.04;102122.31;2087065;28;48194;-59
2022/03/21 04:33:17;;;;;;;;;57.25;46.50;;;;;12.70;48.91;102127.66;2087668;28;47342;-61
2022/03/21 04:34:17;;;;;;;;;59.25;47.50;;;;;12.69;48.96;102121.44;2105472;28;47893;-61
2022/03/21 04:35:17;;;;;;;;;58.00;46.50;;;;;12.68;49.14;102125.88;2105517;28;47704;-59
2022/03/21 04:36:19;;;;;;;;;55.00;44.75;;;;;12.70;48.97;102131.19;2105043;28;47164;-59
2022/03/21 04:37:19;;;;;;;;;54.80;46.00;;;;;12.71;48.82;102129.44;2105452;28;47909;-59
2022/03/21 04:38:20;;;;;;;;;57.75;46.50;;;;;12.70;48.61;102131.19;2105196;28;48048;-62
2022/03/21 04:39:20;;;;;;;;;58.50;47.25;;;;;12.72;48.88;102132.09;2105554;28;47666;-61
2022/03/21 04:40:22;;;;;;;;;53.25;45.25;;;;;12.72;48.94;102136.53;2105737;28;47416;-62
2022/03/21 04:41:23;;;;;;;;;59.40;46.40;;;;;12.72;48.83;102140.09;2105522;28;47567;-60